createdAt,value
2023-01-03T00:01:57.469Z,0.90
2023-01-03T00:04:25.498Z,0.80
2023-01-03T00:06:54.440Z,0.80
2023-01-03T00:09:24.726Z,0.90
2023-01-03T00:12:13.326Z,18.20
2023-01-03T00:14:44.190Z,0.90
2023-01-03T00:17:13.442Z,1.00
2023-01-03T00:19:44.518Z,1.40
2023-01-03T00:22:14.714Z,0.80
2023-01-03T00:24:44.831Z,0.80
2023-01-03T00:27:14.661Z,0.70
2023-01-03T00:29:43.225Z,0.90
2023-01-03T00:32:11.768Z,0.70
2023-01-03T00:34:39.976Z,1.20
2023-01-03T00:37:08.165Z,0.80
2023-01-03T00:39:36.278Z,0.80
2023-01-03T00:42:04.320Z,37.00
2023-01-03T00:44:33.054Z,1.30
2023-01-03T00:47:01.739Z,0.50
2023-01-03T00:49:29.832Z,0.80
2023-01-03T00:51:58.192Z,0.80
2023-01-03T00:54:26.313Z,0.90
2023-01-03T00:56:54.237Z,0.60
2023-01-03T00:59:22.886Z,0.80
2023-01-03T01:01:55.389Z,0.90
2023-01-03T01:04:31.403Z,0.70
2023-01-03T01:07:03.428Z,0.60
2023-01-03T01:09:37.851Z,0.70
2023-01-03T01:12:07.409Z,0.80
2023-01-03T01:14:36.639Z,1.10
2023-01-03T01:17:08.122Z,0.90
2023-01-03T01:19:42.986Z,1.10
2023-01-03T01:22:12.438Z,1.60
2023-01-03T01:24:40.921Z,1.00
2023-01-03T01:27:11.630Z,4.60
2023-01-03T01:29:39.754Z,2.50
2023-01-03T01:32:07.634Z,3.60
2023-01-03T01:34:36.082Z,5.70
2023-01-03T01:37:04.371Z,1.40
2023-01-03T01:39:33.034Z,0.60
2023-01-03T01:42:30.256Z,0.90
2023-01-03T01:45:12.305Z,0.90
2023-01-03T01:47:53.538Z,0.90
2023-01-03T01:50:37.108Z,1.00
2023-01-03T01:53:19.579Z,0.80
2023-01-03T01:55:58.552Z,1.10
2023-01-03T01:58:31.469Z,1.30
2023-01-03T02:03:27.720Z,1.40
2023-01-03T02:05:56.800Z,1.40
2023-01-03T02:08:25.885Z,1.40
2023-01-03T02:11:44.708Z,1.50
2023-01-03T02:14:43.385Z,1.00
2023-01-03T02:17:48.925Z,1.40
2023-01-03T02:21:15.662Z,2.30
2023-01-03T02:24:20.294Z,2.40
2023-01-03T02:27:18.573Z,3.30
2023-01-03T02:30:10.603Z,3.30
2023-01-03T02:32:48.455Z,3.10
2023-01-03T02:36:08.074Z,3.50
2023-01-03T02:39:03.925Z,3.40
2023-01-03T02:42:16.026Z,3.40
2023-01-03T02:44:58.795Z,3.70
2023-01-03T02:47:33.289Z,3.50
2023-01-03T02:50:05.033Z,3.40
2023-01-03T02:52:33.167Z,3.40
2023-01-03T02:55:32.804Z,3.10
2023-01-03T02:58:17.563Z,2.80
2023-01-03T03:00:50.402Z,3.20
2023-01-03T03:06:32.368Z,2.30
2023-01-03T03:09:00.449Z,2.30
2023-01-03T03:11:51.832Z,2.00
2023-01-03T03:14:37.189Z,2.20
2023-01-03T03:17:12.350Z,2.30
2023-01-03T03:20:04.551Z,2.20
2023-01-03T03:23:09.589Z,2.00
2023-01-03T03:25:49.125Z,2.50
2023-01-03T03:28:36.309Z,2.60
2023-01-03T03:31:27.600Z,2.40
2023-01-03T03:34:24.696Z,2.30
2023-01-03T03:37:16.919Z,2.00
2023-01-03T03:40:06.017Z,2.30
2023-01-03T03:43:08.750Z,1.90
2023-01-03T03:45:55.531Z,2.30
2023-01-03T03:48:51.736Z,2.60
2023-01-03T03:51:22.318Z,2.50
2023-01-03T03:53:53.723Z,2.50
2023-01-03T03:56:28.296Z,2.80
2023-01-03T03:59:00.575Z,2.40
2023-01-03T04:01:30.137Z,2.40
2023-01-03T04:04:07.158Z,2.30
2023-01-03T04:06:49.492Z,2.40
2023-01-03T04:09:18.603Z,2.80
2023-01-03T04:11:46.510Z,2.00
2023-01-03T04:14:14.473Z,2.60
2023-01-03T04:16:42.598Z,2.40
2023-01-03T04:19:10.607Z,2.00
2023-01-03T04:21:38.645Z,2.30
2023-01-03T04:24:07.267Z,2.40
2023-01-03T04:26:35.163Z,3.10
2023-01-03T04:29:03.242Z,2.60
2023-01-03T04:31:31.248Z,2.30
2023-01-03T04:33:59.179Z,2.00
2023-01-03T04:36:27.211Z,2.30
2023-01-03T04:38:55.137Z,2.70
2023-01-03T04:41:23.062Z,2.40
2023-01-03T04:44:04.285Z,1.70
2023-01-03T04:46:36.468Z,1.80
2023-01-03T04:49:08.228Z,1.80
2023-01-03T04:51:37.260Z,1.60
2023-01-03T04:54:06.858Z,2.20
2023-01-03T04:56:38.196Z,2.40
2023-01-03T04:59:06.323Z,2.50
2023-01-03T05:01:34.439Z,2.40
2023-01-03T05:04:02.760Z,2.00
2023-01-03T05:06:30.751Z,2.10
2023-01-03T05:09:06.144Z,2.90
2023-01-03T05:11:34.033Z,2.10
2023-01-03T05:14:01.906Z,2.10
2023-01-03T05:16:30.032Z,2.40
2023-01-03T05:18:59.083Z,2.40
2023-01-03T05:21:45.829Z,2.70
2023-01-03T05:24:32.442Z,2.40
2023-01-03T05:27:04.501Z,2.30
2023-01-03T05:29:35.286Z,2.40
2023-01-03T05:32:03.780Z,2.30
2023-01-03T05:34:31.807Z,2.10
2023-01-03T05:36:59.707Z,1.60
2023-01-03T05:39:27.606Z,3.10
2023-01-03T05:42:01.269Z,1.90
2023-01-03T05:44:32.530Z,2.30
2023-01-03T05:47:03.854Z,3.00
2023-01-03T05:49:31.770Z,2.40
2023-01-03T05:51:59.711Z,2.80
2023-01-03T05:54:27.710Z,3.20
2023-01-03T05:56:55.683Z,2.40
2023-01-03T05:59:23.956Z,3.10
2023-01-03T06:01:52.059Z,2.10
2023-01-03T06:04:20.390Z,2.60
2023-01-03T06:06:48.565Z,2.80
2023-01-03T06:09:16.706Z,2.60
2023-01-03T06:11:44.888Z,2.00
2023-01-03T06:14:13.017Z,2.40
2023-01-03T06:16:59.767Z,2.80
2023-01-03T06:19:27.818Z,2.50
2023-01-03T06:21:55.764Z,2.60
2023-01-03T06:24:24.223Z,2.30
2023-01-03T06:26:52.174Z,2.40
2023-01-03T06:29:20.149Z,2.20
2023-01-03T06:31:48.038Z,2.10
2023-01-03T06:34:16.128Z,1.80
2023-01-03T06:36:44.043Z,2.10
2023-01-03T06:39:11.938Z,2.20
2023-01-03T06:41:39.848Z,2.20
2023-01-03T06:44:09.530Z,2.30
2023-01-03T06:46:56.067Z,2.80
2023-01-03T06:49:42.841Z,2.50
2023-01-03T06:52:35.794Z,2.20
2023-01-03T06:55:04.143Z,2.50
2023-01-03T06:57:32.099Z,2.00
2023-01-03T07:00:00.654Z,2.20
2023-01-03T07:02:28.738Z,2.40
2023-01-03T07:04:56.786Z,2.30
2023-01-03T07:07:24.730Z,2.10
2023-01-03T07:09:52.568Z,2.50
2023-01-03T07:12:39.425Z,2.30
2023-01-03T07:15:08.316Z,2.40
2023-01-03T07:17:36.278Z,2.50
2023-01-03T07:20:04.607Z,1.80
2023-01-03T07:22:32.764Z,2.40
2023-01-03T07:25:00.648Z,2.40
2023-01-03T07:27:28.742Z,2.80
2023-01-03T07:29:56.797Z,2.80
2023-01-03T07:32:24.799Z,3.70
2023-01-03T07:34:52.793Z,2.10
2023-01-03T07:37:20.797Z,2.40
2023-01-03T07:39:48.714Z,2.00
2023-01-03T07:42:35.654Z,2.60
2023-01-03T07:45:04.400Z,3.50
2023-01-03T07:47:32.450Z,2.70
2023-01-03T07:50:00.488Z,2.60
2023-01-03T07:52:28.447Z,2.00
2023-01-03T07:54:56.317Z,1.90
2023-01-03T07:57:24.277Z,2.60
2023-01-03T07:59:52.303Z,2.70
2023-01-03T08:02:20.416Z,2.10
2023-01-03T08:04:48.793Z,2.30
2023-01-03T08:07:16.792Z,2.70
2023-01-03T08:10:03.796Z,2.30
2023-01-03T08:12:50.753Z,2.60
2023-01-03T08:15:18.758Z,2.20
2023-01-03T08:17:46.827Z,1.90
2023-01-03T08:20:15.310Z,2.40
2023-01-03T08:22:43.238Z,2.30
2023-01-03T08:25:11.286Z,2.40
2023-01-03T08:27:40.238Z,2.30
2023-01-03T08:30:10.733Z,2.90
2023-01-03T08:32:38.998Z,2.30
2023-01-03T08:35:09.222Z,2.70
2023-01-03T08:37:37.153Z,2.30
2023-01-03T08:40:06.079Z,2.00
2023-01-03T08:42:34.261Z,3.40
2023-01-03T08:45:09.259Z,2.00
2023-01-03T08:47:37.864Z,2.20
2023-01-03T08:50:06.436Z,2.30
2023-01-03T08:52:35.436Z,5.40
2023-01-03T08:55:05.812Z,12.70
2023-01-03T08:57:33.783Z,1.70
2023-01-03T09:00:02.262Z,2.60
2023-01-03T09:02:33.108Z,2.30
2023-01-03T09:05:01.347Z,1.70
2023-01-03T09:07:29.294Z,1.60
2023-01-03T09:09:57.205Z,1.50
2023-01-03T09:12:25.151Z,1.70
2023-01-03T09:14:53.272Z,1.70
2023-01-03T09:17:21.218Z,1.80
2023-01-03T09:19:49.155Z,1.80
2023-01-03T09:22:17.063Z,8.70
2023-01-03T09:24:45.001Z,1.70
2023-01-03T09:27:13.007Z,1.50
2023-01-03T09:29:40.871Z,2.00
2023-01-03T09:32:08.888Z,1.80
2023-01-03T09:34:37.078Z,9.70
2023-01-03T09:37:05.011Z,2.00
2023-01-03T09:39:32.982Z,1.40
2023-01-03T09:42:20.122Z,1.60
2023-01-03T09:44:48.300Z,1.90
2023-01-03T09:47:24.465Z,2.10
2023-01-03T09:53:04.008Z,2.00
2023-01-03T09:56:13.978Z,1.50
2023-01-03T09:59:02.579Z,1.50
2023-01-03T10:02:17.604Z,1.90
2023-01-03T10:05:01.966Z,1.60
2023-01-03T10:08:24.523Z,1.40
2023-01-03T10:11:07.574Z,1.50
2023-01-03T10:16:48.063Z,1.60
2023-01-03T10:19:29.900Z,2.50
2023-01-03T10:22:14.381Z,2.40
2023-01-03T10:24:47.660Z,1.80
2023-01-03T10:27:19.286Z,1.70
2023-01-03T10:29:50.429Z,1.70
2023-01-03T10:33:07.634Z,1.70
2023-01-03T10:35:36.953Z,1.70
2023-01-03T10:38:05.036Z,1.30
2023-01-03T10:40:47.141Z,0.90
2023-01-03T10:43:27.176Z,1.20
2023-01-03T10:46:05.242Z,1.50
2023-01-03T10:49:08.397Z,1.40
2023-01-03T10:51:48.715Z,1.30
2023-01-03T10:54:19.702Z,1.10
2023-01-03T10:56:49.009Z,0.90
2023-01-03T10:59:24.526Z,1.30
2023-01-03T11:02:12.850Z,0.90
2023-01-03T11:04:41.861Z,1.90
2023-01-03T11:07:11.535Z,0.90
2023-01-03T11:09:53.139Z,1.20
2023-01-03T11:12:44.138Z,1.10
2023-01-03T11:15:38.010Z,0.50
2023-01-03T11:18:18.257Z,1.40
2023-01-03T11:21:07.946Z,1.40
2023-01-03T11:24:18.943Z,1.00
2023-01-03T11:26:54.416Z,1.30
2023-01-03T11:30:01.661Z,1.00
2023-01-03T11:33:03.375Z,1.40
2023-01-03T11:36:04.872Z,1.00
2023-01-03T11:38:46.626Z,1.20
2023-01-03T11:41:36.859Z,1.00
2023-01-03T11:44:41.985Z,0.80
2023-01-03T11:47:55.275Z,0.90
2023-01-03T11:50:45.170Z,1.10
2023-01-03T11:53:38.421Z,1.00
2023-01-03T11:59:03.965Z,1.40
2023-01-03T12:02:29.551Z,1.70
2023-01-03T12:05:17.943Z,1.30
2023-01-03T12:08:06.542Z,1.30
2023-01-03T12:10:58.638Z,1.10
2023-01-03T12:13:49.762Z,1.90
2023-01-03T12:16:31.652Z,1.50
2023-01-03T12:19:26.780Z,1.80
2023-01-03T12:22:30.652Z,1.80
2023-01-03T12:25:25.348Z,1.80
2023-01-03T12:28:14.292Z,2.60
2023-01-03T12:30:55.039Z,3.70
2023-01-03T12:33:33.764Z,1.20
2023-01-03T12:36:14.286Z,1.50
2023-01-03T12:38:51.968Z,2.00
2023-01-03T12:41:42.371Z,2.70
2023-01-03T12:44:22.246Z,1.80
2023-01-03T12:46:55.113Z,2.10
2023-01-03T12:52:02.760Z,1.70
2023-01-03T12:54:42.605Z,2.10
2023-01-03T12:58:20.696Z,1.60
2023-01-03T13:01:15.818Z,1.70
2023-01-03T13:03:59.185Z,22.30
2023-01-03T13:09:13.480Z,8.70
2023-01-03T13:11:54.408Z,3.50
2023-01-03T13:14:28.635Z,1.80
2023-01-03T13:17:17.138Z,1.40
2023-01-03T13:20:18.023Z,2.60
2023-01-03T13:22:54.309Z,1.40
2023-01-03T13:25:42.378Z,1.10
2023-01-03T13:28:22.220Z,2.10
2023-01-03T13:31:10.159Z,1.90
2023-01-03T13:34:10.706Z,2.10
2023-01-03T13:37:07.194Z,1.80
2023-01-03T13:39:50.410Z,6.10
2023-01-03T13:47:50.672Z,1.80
2023-01-03T13:50:28.147Z,1.40
2023-01-03T13:53:11.558Z,28.30
2023-01-03T13:55:52.732Z,1.60
2023-01-03T13:58:47.198Z,1.50
2023-01-03T14:01:40.734Z,1.20
2023-01-03T14:04:56.817Z,1.20
2023-01-03T14:08:05.736Z,1.70
2023-01-03T14:11:31.753Z,1.60
2023-01-03T14:14:09.557Z,1.30
2023-01-03T14:16:53.122Z,1.70
2023-01-03T14:19:34.881Z,1.70
2023-01-03T14:22:30.062Z,1.90
2023-01-03T14:25:00.039Z,1.70
2023-01-03T14:27:40.621Z,1.80
2023-01-03T14:30:28.013Z,2.00
2023-01-03T14:32:56.211Z,14.20
2023-01-03T14:35:39.810Z,1.80
2023-01-03T14:38:33.237Z,2.30
2023-01-03T14:41:03.065Z,2.00
2023-01-03T14:43:33.830Z,2.20
2023-01-03T14:46:06.648Z,2.00
2023-01-03T14:51:05.467Z,2.30
2023-01-03T14:53:35.325Z,7.20
2023-01-03T14:56:03.520Z,1.80
2023-01-03T14:58:46.438Z,1.90
2023-01-03T15:01:15.419Z,1.80
2023-01-03T15:03:47.233Z,2.20
2023-01-03T15:06:30.442Z,2.30
2023-01-03T15:11:55.579Z,3.30
2023-01-03T15:14:26.966Z,2.50
2023-01-03T15:17:09.486Z,4.60
2023-01-03T15:19:46.163Z,6.10
2023-01-03T15:22:23.651Z,4.20
2023-01-03T15:25:04.446Z,3.30
2023-01-03T15:27:42.279Z,5.30
2023-01-03T15:30:23.515Z,8.30
2023-01-03T15:33:32.274Z,4.30
2023-01-03T15:36:18.718Z,17.80
2023-01-03T15:38:48.738Z,28.90
2023-01-03T15:42:12.255Z,2.60
2023-01-03T15:44:39.415Z,2.80
2023-01-03T15:47:09.306Z,3.40
2023-01-03T15:49:48.157Z,4.00
2023-01-03T15:52:16.716Z,2.90
2023-01-03T15:54:45.931Z,3.30
2023-01-03T15:57:23.082Z,3.90
2023-01-03T15:59:58.723Z,9.70
2023-01-03T16:02:27.027Z,4.20
2023-01-03T16:04:55.878Z,10.80
2023-01-03T16:07:23.884Z,21.20
2023-01-03T16:09:52.337Z,5.80
2023-01-03T16:12:35.123Z,5.50
2023-01-03T16:15:06.233Z,6.10
2023-01-03T16:17:35.203Z,6.60
2023-01-03T16:20:03.567Z,5.00
2023-01-03T16:22:35.784Z,6.30
2023-01-03T16:25:05.760Z,6.90
2023-01-03T16:27:33.815Z,6.30
2023-01-03T16:30:01.850Z,6.40
2023-01-03T16:32:31.913Z,8.40
2023-01-03T16:35:05.521Z,6.80
2023-01-03T16:37:34.515Z,7.00
2023-01-03T16:40:02.620Z,9.30
2023-01-03T16:42:30.646Z,8.70
2023-01-03T16:44:58.622Z,12.20
2023-01-03T16:47:32.889Z,6.00
2023-01-03T16:50:06.891Z,6.70
2023-01-03T16:52:43.006Z,6.70
2023-01-03T16:55:35.360Z,7.40
2023-01-03T16:58:03.847Z,7.30
2023-01-03T17:00:34.086Z,8.20
2023-01-03T17:03:02.534Z,6.30
2023-01-03T17:05:36.089Z,5.80
2023-01-03T17:08:17.498Z,5.60
2023-01-03T17:10:48.164Z,5.40
2023-01-03T17:13:39.121Z,4.40
2023-01-03T17:16:15.087Z,4.80
2023-01-03T17:18:45.646Z,5.20
2023-01-03T17:21:26.882Z,5.50
2023-01-03T17:24:19.731Z,7.00
2023-01-03T17:26:50.957Z,10.80
2023-01-03T17:29:26.093Z,44.10
2023-01-03T17:31:54.057Z,7.30
2023-01-03T17:34:27.177Z,6.30
2023-01-03T17:36:56.492Z,6.40
2023-01-03T17:39:25.345Z,6.30
2023-01-03T17:42:12.211Z,6.80
2023-01-03T17:44:40.276Z,7.50
2023-01-03T17:47:41.315Z,8.00
2023-01-03T17:50:10.328Z,7.10
2023-01-03T17:52:38.719Z,7.30
2023-01-03T17:55:23.831Z,7.50
2023-01-03T17:57:52.613Z,8.00
2023-01-03T18:00:25.491Z,7.20
2023-01-03T18:02:55.357Z,7.40
2023-01-03T18:05:28.597Z,8.70
2023-01-03T18:08:02.657Z,11.00
2023-01-03T18:10:45.214Z,9.30
2023-01-03T18:13:26.279Z,9.20
2023-01-03T18:15:55.490Z,9.80
2023-01-03T18:18:26.661Z,9.60
2023-01-03T18:20:55.582Z,9.70
2023-01-03T18:23:37.928Z,9.30
2023-01-03T18:26:10.267Z,9.40
2023-01-03T18:28:38.239Z,9.60
2023-01-03T18:31:07.186Z,10.50
2023-01-03T18:33:35.276Z,9.90
2023-01-03T18:36:03.667Z,10.30
2023-01-03T18:38:41.432Z,8.80
2023-01-03T18:41:18.952Z,10.30
2023-01-03T18:43:46.870Z,9.60
2023-01-03T18:46:21.083Z,9.30
2023-01-03T18:48:49.002Z,8.50
2023-01-03T18:51:20.925Z,8.40
2023-01-03T18:53:56.489Z,8.30
2023-01-03T18:56:37.827Z,11.80
2023-01-03T18:59:25.517Z,9.70
2023-01-03T19:01:54.510Z,7.80
2023-01-03T19:04:22.605Z,6.50
2023-01-03T19:06:53.478Z,6.50
2023-01-03T19:09:25.324Z,6.30
2023-01-03T19:11:56.103Z,5.30
2023-01-03T19:14:24.055Z,5.60
2023-01-03T19:16:52.039Z,5.10
2023-01-03T19:19:19.950Z,5.30
2023-01-03T19:21:48.114Z,4.80
2023-01-03T19:24:39.086Z,4.40
2023-01-03T19:27:20.802Z,4.90
2023-01-03T19:29:51.561Z,4.30
2023-01-03T19:32:25.546Z,5.70
2023-01-03T19:34:54.175Z,3.80
2023-01-03T19:37:22.578Z,4.00
2023-01-03T19:39:50.506Z,4.20
2023-01-03T19:42:39.545Z,5.10
2023-01-03T19:45:19.028Z,42.30
2023-01-03T19:47:47.023Z,21.40
2023-01-03T19:50:23.678Z,5.20
2023-01-03T19:52:55.963Z,4.60
2023-01-03T19:55:29.016Z,4.90
2023-01-03T19:57:59.725Z,6.90
2023-01-03T20:00:32.271Z,17.70
2023-01-03T20:03:07.940Z,16.80
2023-01-03T20:05:36.128Z,10.10
2023-01-03T20:08:11.690Z,9.60
2023-01-03T20:10:43.873Z,7.90
2023-01-03T20:13:25.318Z,8.80
2023-01-03T20:15:57.912Z,9.20
2023-01-03T20:18:35.625Z,11.90
2023-01-03T20:21:22.510Z,9.60
2023-01-03T20:23:55.367Z,10.40
2023-01-03T20:26:30.827Z,9.50
2023-01-03T20:28:59.943Z,9.20
2023-01-03T20:31:28.419Z,10.30
2023-01-03T20:33:57.106Z,9.20
2023-01-03T20:36:32.397Z,9.40
2023-01-03T20:39:00.403Z,9.90
2023-01-03T20:41:37.407Z,9.90
2023-01-03T20:44:09.193Z,11.40
2023-01-03T20:46:39.136Z,14.20
2023-01-03T20:49:19.700Z,14.40
2023-01-03T20:51:48.695Z,11.90
2023-01-03T20:54:18.048Z,11.50
2023-01-03T20:56:46.838Z,12.20
2023-01-03T20:59:21.025Z,11.40
2023-01-03T21:01:49.392Z,27.60
2023-01-03T21:04:17.599Z,60.60
2023-01-03T21:06:46.477Z,13.10
2023-01-03T21:09:14.456Z,11.70
2023-01-03T21:11:42.405Z,11.60
2023-01-03T21:14:10.321Z,11.00
2023-01-03T21:16:45.058Z,12.50
2023-01-03T21:19:18.253Z,12.30
2023-01-03T21:21:52.712Z,12.50
2023-01-03T21:24:23.628Z,14.40
2023-01-03T21:26:52.215Z,13.50
2023-01-03T21:29:21.984Z,15.90
2023-01-03T21:31:49.997Z,12.90
2023-01-03T21:34:21.244Z,11.40
2023-01-03T21:36:49.284Z,10.40
2023-01-03T21:39:17.363Z,12.30
2023-01-03T21:42:05.414Z,12.70
2023-01-03T21:44:33.316Z,11.80
2023-01-03T21:47:01.226Z,11.90
2023-01-03T21:49:29.284Z,12.40
2023-01-03T21:51:57.214Z,11.60
2023-01-03T21:54:25.143Z,11.70
2023-01-03T21:56:53.154Z,11.50
2023-01-03T21:59:21.175Z,12.70
2023-01-03T22:02:08.171Z,12.20
2023-01-03T22:04:36.267Z,12.80
2023-01-03T22:07:04.177Z,10.50
2023-01-03T22:09:50.717Z,21.70
2023-01-03T22:12:20.533Z,13.80
2023-01-03T22:14:48.961Z,11.90
2023-01-03T22:17:16.982Z,11.30
2023-01-03T22:19:46.312Z,12.20
2023-01-03T22:22:14.312Z,12.50
2023-01-03T22:24:42.270Z,34.80
2023-01-03T22:27:10.196Z,23.40
2023-01-03T22:29:38.099Z,15.00
2023-01-03T22:32:06.147Z,12.10
2023-01-03T22:34:34.294Z,13.40
2023-01-03T22:37:02.283Z,13.20
2023-01-03T22:39:30.176Z,14.50
2023-01-03T22:41:58.066Z,11.90
2023-01-03T22:44:25.938Z,12.50
2023-01-03T22:46:53.924Z,11.90
2023-01-03T22:49:21.929Z,28.80
2023-01-03T22:51:49.983Z,45.20
2023-01-03T22:54:18.009Z,14.20
2023-01-03T22:56:45.957Z,13.20
2023-01-03T22:59:13.972Z,14.10
2023-01-03T23:01:42.616Z,14.50
2023-01-03T23:04:11.623Z,16.90
2023-01-03T23:06:39.754Z,14.20
2023-01-03T23:09:07.706Z,14.30
2023-01-03T23:11:54.171Z,14.50
2023-01-03T23:14:25.380Z,13.40
2023-01-03T23:16:57.843Z,14.10
2023-01-03T23:19:26.811Z,14.10
2023-01-03T23:21:56.242Z,14.50
2023-01-03T23:24:25.295Z,15.00
2023-01-03T23:26:53.976Z,15.10
2023-01-03T23:29:22.220Z,15.40
2023-01-03T23:31:50.324Z,33.90
2023-01-03T23:34:18.676Z,58.90
2023-01-03T23:36:46.671Z,91.60
2023-01-03T23:39:17.724Z,19.50
2023-01-03T23:41:46.514Z,15.10
2023-01-03T23:44:14.975Z,14.40
2023-01-03T23:46:43.135Z,17.60
2023-01-03T23:49:12.958Z,15.20
2023-01-03T23:51:40.909Z,15.20
2023-01-03T23:54:10.036Z,16.50
2023-01-03T23:56:38.166Z,16.50
2023-01-03T23:59:06.245Z,49.70
